»·PEaware :: N160EJ KBUR-KSBA

N160EJ :: KBUR-KSBA

FLIGHT INFORMATION

Flight Status: Arrived
Operator: Privately registered:
United States
More flights under this callsign
Pilot: Joe I. (16950)
Aircraft: CESSNA 172 SKYHAWK
(C172)
More flights by this aircraft type
Origin: KBUR Bob Hope-Burbank
United States
Destination: KSBA Santa Barbara Mun
United States
More flights between these airports :: More routes between these airports
Route: +
File this flight plan on PilotEdge
Remarks:
Altitude:
(Current/Filed)
0ft
Speed:
(Current/Filed)
0kts
Departed: 02-Dec-19 09:55 PM
Arrived: 02-Dec-19 10:37 PM
Distance/Time
Traveled:
75nm/0:42
Distance/Time
To Go:
Arrived

Flight Plot

Page will automatically refresh every two minutes.


Map Options




Map Legend


Flown Route
Filed Route
Departure Airport
Arrival Airport
Navaid (VOR, NDB)
Fix

Horizontal Profiles

Position Reports

Time Latitude Longitude Heading Altitude Ground
Speed
02-Dec-19 21:42 34.199561 -118.359424 171 738ft 0kts
02-Dec-19 21:43 34.199561 -118.359424 171 738ft 0kts
02-Dec-19 21:44 34.199561 -118.359424 171 738ft 0kts
02-Dec-19 21:45 34.199561 -118.359424 171 738ft 0kts
02-Dec-19 21:46 34.199561 -118.359424 171 738ft 0kts
02-Dec-19 21:47 34.199561 -118.359424 171 738ft 0kts
02-Dec-19 21:48 34.199037 -118.357989 173 738ft 0kts
02-Dec-19 21:49 34.200688 -118.358393 346 738ft 17kts
02-Dec-19 21:50 34.205817 -118.359811 348 738ft 20kts
02-Dec-19 21:51 34.209407 -118.360693 54 738ft 0kts
02-Dec-19 21:52 34.209407 -118.360693 54 738ft 0kts
02-Dec-19 21:53 34.209407 -118.360693 54 738ft 0kts
02-Dec-19 21:54 34.201115 -118.357418 167 866ft 90kts
02-Dec-19 21:55 34.180290 -118.362409 238 1831ft 88kts
02-Dec-19 21:56 34.178081 -118.392817 283 2643ft 99kts
02-Dec-19 21:57 34.200474 -118.413989 331 3290ft 103kts
02-Dec-19 21:58 34.224831 -118.428686 330 4149ft 91kts
02-Dec-19 21:59 34.246043 -118.446247 317 4875ft 96kts
02-Dec-19 22:00 34.266899 -118.465008 320 5645ft 91kts
02-Dec-19 22:01 34.285285 -118.485890 301 6285ft 94kts
02-Dec-19 22:02 34.294069 -118.517372 288 6678ft 108kts
02-Dec-19 22:03 34.303130 -118.555731 283 6508ft 126kts
02-Dec-19 22:04 34.306563 -118.596300 273 6311ft 117kts
02-Dec-19 22:05 34.304788 -118.633154 267 6426ft 109kts
02-Dec-19 22:06 34.301859 -118.668947 265 6461ft 109kts
02-Dec-19 22:07 34.298264 -118.705786 265 6502ft 109kts
02-Dec-19 22:08 34.294059 -118.742343 257 6527ft 114kts
02-Dec-19 22:09 34.288721 -118.782439 255 6534ft 122kts
02-Dec-19 22:10 34.294357 -118.823490 278 6524ft 130kts
02-Dec-19 22:11 34.301418 -118.865851 277 6506ft 126kts
02-Dec-19 22:12 34.307876 -118.907606 276 6507ft 125kts
02-Dec-19 22:13 34.313759 -118.949166 275 6503ft 125kts
02-Dec-19 22:14 34.319131 -118.990968 274 6503ft 125kts
02-Dec-19 22:15 34.323981 -119.032750 273 6499ft 125kts
02-Dec-19 22:16 34.328304 -119.074477 273 6497ft 125kts
02-Dec-19 22:17 34.332115 -119.116407 272 6494ft 125kts
02-Dec-19 22:18 34.335324 -119.158236 271 6492ft 124kts
02-Dec-19 22:19 34.337943 -119.200096 270 6492ft 124kts
02-Dec-19 22:20 34.339996 -119.241964 269 6488ft 124kts
02-Dec-19 22:21 34.341505 -119.283701 268 6487ft 124kts
02-Dec-19 22:22 34.344230 -119.325588 279 6514ft 125kts
02-Dec-19 22:23 34.354965 -119.367307 291 6226ft 143kts
02-Dec-19 22:24 34.372536 -119.414342 294 4333ft 143kts
02-Dec-19 22:25 34.386319 -119.451401 295 4101ft 124kts
02-Dec-19 22:26 34.401498 -119.488465 294 4177ft 125kts
02-Dec-19 22:27 34.414998 -119.528995 285 4373ft 135kts
02-Dec-19 22:28 34.420659 -119.574515 275 4274ft 137kts
02-Dec-19 22:29 34.426470 -119.619628 281 4358ft 138kts
02-Dec-19 22:30 34.432195 -119.663823 272 3209ft 117kts
02-Dec-19 22:31 34.432459 -119.699812 265 2353ft 109kts
02-Dec-19 22:32 34.430654 -119.739118 265 1373ft 114kts
02-Dec-19 22:33 34.429631 -119.772411 267 898ft 84kts
02-Dec-19 22:34 34.428736 -119.801168 267 538ft 84kts
02-Dec-19 22:35 34.428114 -119.827314 269 170ft 76kts
02-Dec-19 22:36 34.427712 -119.844730 269 14ft 31kts
02-Dec-19 22:37 34.429002 -119.844951 338 14ft 0kts

Navigation Log

Ident Type
Flight plan parsing failed, navigation log unavailable